Terminal Aerodrome Forecast
Issued by NWS

Home | Current Version | Previous Version | Text Only | Print | Product List | Glossary On
Versions: 1 2 3 4 5 6 7 8 9 10 11 12 13 14 15 16 17 18 19 20 21 22 23 24 25 26 27 28
000
FTUS44 KLZK 202300
TAFHRO
TAF
KHRO 202323Z 2100/2124 15004KT P6SM OVC025
     FM210600 14004KT 5SM BR SCT007 OVC025
      TEMPO 2109/2113 2SM BR BKN007
     FM211500 15008KT P6SM SCT025 BKN060
      TEMPO 2115/2118 BKN025=

USA.gov is the U.S. government's official web portal to all federal, state and local government web resources and services.